Time,TemperatureF,DewpointF,PressureIn,WindDirection,WindDirectionDegrees,WindSpeedMPH,WindSpeedGustMPH,Humidity,HourlyPrecipIn,Conditions,Clouds,dailyrainin,SoftwareType,DateUTC
2013-08-10 00:03:00,74.7,74.4,29.92,SE,135,0.0,-999.0,99,-99.99,,,0.00,Acu-Link.com,2013-08-10 04:03:00,
2013-08-10 00:18:00,74.3,74.0,29.92,ESE,112,0.0,-999.0,99,-99.99,,,0.00,Acu-Link.com,2013-08-10 04:18:00,
2013-08-10 00:33:00,74.1,73.8,29.92,SE,135,0.0,-999.0,99,-99.99,,,0.00,Acu-Link.com,2013-08-10 04:33:00,
2013-08-10 00:48:00,73.8,73.5,29.92,ESE,112,0.0,-999.0,99,-99.99,,,0.00,Acu-Link.com,2013-08-10 04:48:00,
2013-08-10 01:03:00,73.6,73.3,29.92,SSE,157,0.0,-999.0,99,-99.99,,,0.00,Acu-Link.com,2013-08-10 05:03:00,
2013-08-10 01:18:00,73.2,72.9,29.92,SE,135,0.0,-999.0,99,-99.99,,,0.00,Acu-Link.com,2013-08-10 05:18:00,
2013-08-10 01:34:00,73.0,72.7,29.92,ESE,112,0.0,-999.0,99,-99.99,,,0.00,Acu-Link.com,2013-08-10 05:34:00,
2013-08-10 01:49:00,73.0,72.7,29.92,SSE,157,0.0,-999.0,99,-99.99,,,0.00,Acu-Link.com,2013-08-10 05:49:00,
2013-08-10 02:04:00,72.9,72.6,29.92,South,180,0.0,-999.0,99,-99.99,,,0.00,Acu-Link.com,2013-08-10 06:04:00,
2013-08-10 02:19:00,73.0,72.7,29.91,WNW,292,0.0,-999.0,99,-99.99,,,0.00,Acu-Link.com,2013-08-10 06:19:00,
2013-08-10 02:34:00,72.9,72.6,29.91,ESE,112,0.0,-999.0,99,-99.99,,,0.00,Acu-Link.com,2013-08-10 06:34:00,
2013-08-10 02:49:00,72.7,72.4,29.91,ESE,112,0.0,-999.0,99,-99.99,,,0.00,Acu-Link.com,2013-08-10 06:49:00,
2013-08-10 03:04:00,72.5,72.2,29.91,ESE,112,0.0,-999.0,99,-99.99,,,0.00,Acu-Link.com,2013-08-10 07:04:00,
2013-08-10 03:19:00,72.1,71.8,29.92,ESE,112,0.0,-999.0,99,-99.99,,,0.00,Acu-Link.com,2013-08-10 07:19:00,
2013-08-10 03:34:00,72.1,71.8,29.92,WNW,292,0.0,-999.0,99,-99.99,,,0.00,Acu-Link.com,2013-08-10 07:34:00,
2013-08-10 03:50:00,72.1,71.8,29.92,East,90,0.0,-999.0,99,-99.99,,,0.00,Acu-Link.com,2013-08-10 07:50:00,
2013-08-10 04:06:00,72.0,71.7,29.93,SE,135,0.0,-999.0,99,-99.99,,,0.00,Acu-Link.com,2013-08-10 08:06:00,
2013-08-10 04:21:00,72.0,71.7,29.93,SE,135,0.0,-999.0,99,-99.99,,,0.00,Acu-Link.com,2013-08-10 08:21:00,
2013-08-10 04:37:00,71.6,71.3,29.93,ESE,112,0.0,-999.0,99,-99.99,,,0.01,Acu-Link.com,2013-08-10 08:37:00,
2013-08-10 04:52:00,71.4,71.1,29.92,SSE,157,0.0,-999.0,99,-99.99,,,0.01,Acu-Link.com,2013-08-10 08:52:00,
2013-08-10 05:07:00,71.2,70.9,29.92,East,90,0.0,-999.0,99,-99.99,,,0.01,Acu-Link.com,2013-08-10 09:07:00,
2013-08-10 05:22:00,71.1,70.8,29.93,NNE,22,0.0,-999.0,99,-99.99,,,0.01,Acu-Link.com,2013-08-10 09:22:00,
2013-08-10 05:37:00,71.4,71.1,29.93,South,180,0.0,-999.0,99,-99.99,,,0.01,Acu-Link.com,2013-08-10 09:37:00,
2013-08-10 05:52:00,71.2,70.9,29.93,SSE,157,0.0,-999.0,99,-99.99,,,0.01,Acu-Link.com,2013-08-10 09:52:00,
2013-08-10 06:08:00,70.9,70.6,29.93,SSE,157,0.0,-999.0,99,-99.99,,,0.01,Acu-Link.com,2013-08-10 10:08:00,
2013-08-10 06:23:00,70.5,70.2,29.93,SSE,157,0.0,-999.0,99,-99.99,,,0.01,Acu-Link.com,2013-08-10 10:23:00,
2013-08-10 06:38:00,70.5,70.2,29.94,SE,135,0.0,-999.0,99,-99.99,,,0.01,Acu-Link.com,2013-08-10 10:38:00,
2013-08-10 06:53:00,70.3,70.0,29.94,SSW,202,0.0,-999.0,99,-99.99,,,0.01,Acu-Link.com,2013-08-10 10:53:00,
2013-08-10 07:08:00,70.3,70.0,29.95,South,180,0.0,-999.0,99,-99.99,,,0.01,Acu-Link.com,2013-08-10 11:08:00,
2013-08-10 07:23:00,70.3,70.0,29.95,SSE,157,0.0,-999.0,99,-99.99,,,0.01,Acu-Link.com,2013-08-10 11:23:00,
2013-08-10 07:39:00,70.7,70.4,29.96,ESE,112,0.0,-999.0,99,-99.99,,,0.01,Acu-Link.com,2013-08-10 11:39:00,
2013-08-10 07:54:00,71.1,70.8,29.96,West,270,0.0,-999.0,99,-99.99,,,0.01,Acu-Link.com,2013-08-10 11:54:00,
2013-08-10 08:09:00,72.9,72.6,29.96,SE,135,0.0,-999.0,99,-99.99,,,0.01,Acu-Link.com,2013-08-10 12:09:00,
2013-08-10 08:24:00,75.4,75.1,29.97,SSW,202,0.0,-999.0,99,-99.99,,,0.01,Acu-Link.com,2013-08-10 12:24:00,
2013-08-10 08:39:00,75.9,75.6,29.96,SE,135,0.0,-999.0,99,-99.99,,,0.01,Acu-Link.com,2013-08-10 12:39:00,
2013-08-10 08:54:00,76.6,76.3,29.97,South,180,0.0,-999.0,99,-99.99,,,0.01,Acu-Link.com,2013-08-10 12:54:00,
2013-08-10 09:09:00,77.5,76.6,29.98,ESE,112,0.0,-999.0,97,-99.99,,,0.01,Acu-Link.com,2013-08-10 13:09:00,
2013-08-10 09:24:00,79.5,77.6,29.97,ESE,112,0.0,-999.0,94,-99.99,,,0.01,Acu-Link.com,2013-08-10 13:24:00,
2013-08-10 09:39:00,81.3,76.7,29.98,South,180,2.7,-999.0,86,-99.99,,,0.01,Acu-Link.com,2013-08-10 13:39:00,
2013-08-10 09:55:00,85.1,78.2,29.97,SSW,202,1.7,-999.0,80,-99.99,,,0.01,Acu-Link.com,2013-08-10 13:55:00,
2013-08-10 10:10:00,84.6,78.1,29.97,ESE,112,3.2,-999.0,81,-99.99,,,0.01,Acu-Link.com,2013-08-10 14:10:00,
2013-08-10 10:25:00,84.2,77.3,29.98,South,180,2.7,-999.0,80,-99.99,,,0.01,Acu-Link.com,2013-08-10 14:25:00,
2013-08-10 10:40:00,84.4,77.2,29.98,SE,135,3.7,-999.0,79,-99.99,,,0.01,Acu-Link.com,2013-08-10 14:40:00,
2013-08-10 10:55:00,82.9,76.8,29.98,NE,45,0.0,-999.0,82,-99.99,,,0.01,Acu-Link.com,2013-08-10 14:55:00,
2013-08-10 11:10:00,83.8,77.0,29.98,South,180,3.2,-999.0,80,-99.99,,,0.01,Acu-Link.com,2013-08-10 15:10:00,
2013-08-10 11:25:00,85.5,78.2,29.98,SW,225,1.1,-999.0,79,-99.99,,,0.01,Acu-Link.com,2013-08-10 15:25:00,
2013-08-10 11:40:00,84.9,77.6,29.98,NNW,337,0.0,-999.0,79,-99.99,,,0.01,Acu-Link.com,2013-08-10 15:40:00,
2013-08-10 11:55:00,84.0,78.3,29.98,NNE,22,0.0,-999.0,83,-99.99,,,0.01,Acu-Link.com,2013-08-10 15:55:00,
2013-08-10 12:11:00,84.2,77.3,29.97,SE,135,0.0,-999.0,80,-99.99,,,0.01,Acu-Link.com,2013-08-10 16:11:00,
2013-08-10 12:26:00,84.0,77.5,29.97,SW,225,1.7,-999.0,81,-99.99,,,0.01,Acu-Link.com,2013-08-10 16:26:00,
2013-08-10 12:41:00,86.0,77.9,29.96,West,270,1.7,-999.0,77,-99.99,,,0.01,Acu-Link.com,2013-08-10 16:41:00,
2013-08-10 12:56:00,89.4,78.3,29.96,WSW,247,2.7,-999.0,70,-99.99,,,0.01,Acu-Link.com,2013-08-10 16:56:00,
2013-08-10 13:11:00,89.1,77.6,29.95,South,180,0.0,-999.0,69,-99.99,,,0.01,Acu-Link.com,2013-08-10 17:11:00,
2013-08-10 13:26:00,86.4,77.1,29.94,SW,225,2.2,-999.0,74,-99.99,,,0.01,Acu-Link.com,2013-08-10 17:26:00,
2013-08-10 13:42:00,88.0,77.4,29.94,NNW,337,0.0,-999.0,71,-99.99,,,0.01,Acu-Link.com,2013-08-10 17:42:00,
2013-08-10 13:57:00,86.0,77.1,29.94,WSW,247,2.7,-999.0,75,-99.99,,,0.01,Acu-Link.com,2013-08-10 17:57:00,
2013-08-10 14:12:00,89.1,78.0,29.93,WNW,292,2.7,-999.0,70,-99.99,,,0.01,Acu-Link.com,2013-08-10 18:12:00,
2013-08-10 14:27:00,88.0,77.0,29.93,SSW,202,2.7,-999.0,70,-99.99,,,0.01,Acu-Link.com,2013-08-10 18:27:00,
2013-08-10 14:42:00,86.2,78.1,29.94,West,270,2.2,-999.0,77,-99.99,,,0.01,Acu-Link.com,2013-08-10 18:42:00,
2013-08-10 14:57:00,78.4,74.5,29.98,NW,315,3.7,-999.0,88,-99.99,,,0.02,Acu-Link.com,2013-08-10 18:57:00,
2013-08-10 15:12:00,74.8,73.3,29.97,SSW,202,4.2,-999.0,95,-99.99,,,0.14,Acu-Link.com,2013-08-10 19:12:00,
2013-08-10 15:27:00,74.5,73.6,29.96,NW,315,0.0,-999.0,97,-99.99,,,0.47,Acu-Link.com,2013-08-10 19:27:00,
2013-08-10 15:42:00,74.5,73.6,29.94,West,270,0.0,-999.0,97,-99.99,,,0.54,Acu-Link.com,2013-08-10 19:42:00,
2013-08-10 15:58:00,74.7,74.4,29.94,NE,45,0.0,-999.0,99,-99.99,,,0.55,Acu-Link.com,2013-08-10 19:58:00,
2013-08-10 16:13:00,77.4,75.9,29.93,ESE,112,0.0,-999.0,95,-99.99,,,0.56,Acu-Link.com,2013-08-10 20:13:00,
2013-08-10 16:28:00,78.8,75.9,29.93,East,90,3.2,-999.0,91,-99.99,,,0.56,Acu-Link.com,2013-08-10 20:28:00,
2013-08-10 16:43:00,80.6,76.7,29.94,ESE,112,0.0,-999.0,88,-99.99,,,0.56,Acu-Link.com,2013-08-10 20:43:00,
2013-08-10 16:58:00,80.8,76.9,29.93,West,270,0.0,-999.0,88,-99.99,,,0.56,Acu-Link.com,2013-08-10 20:58:00,
2013-08-10 17:13:00,81.7,76.4,29.93,NE,45,0.0,-999.0,84,-99.99,,,0.56,Acu-Link.com,2013-08-10 21:13:00,
2013-08-10 17:28:00,81.7,77.1,29.93,NNW,337,0.0,-999.0,86,-99.99,,,0.56,Acu-Link.com,2013-08-10 21:28:00,
2013-08-10 17:43:00,81.3,76.7,29.93,South,180,0.0,-999.0,86,-99.99,,,0.56,Acu-Link.com,2013-08-10 21:43:00,
2013-08-10 17:58:00,82.2,77.2,29.94,SW,225,0.0,-999.0,85,-99.99,,,0.56,Acu-Link.com,2013-08-10 21:58:00,
2013-08-10 18:13:00,83.5,77.4,29.93,East,90,0.0,-999.0,82,-99.99,,,0.56,Acu-Link.com,2013-08-10 22:13:00,
2013-08-10 18:29:00,84.7,77.8,29.93,East,90,0.0,-999.0,80,-99.99,,,0.56,Acu-Link.com,2013-08-10 22:29:00,
2013-08-10 18:44:00,85.8,78.1,29.93,ESE,112,0.0,-999.0,78,-99.99,,,0.56,Acu-Link.com,2013-08-10 22:44:00,
2013-08-10 18:59:00,82.8,78.5,29.93,ESE,112,0.0,-999.0,87,-99.99,,,0.56,Acu-Link.com,2013-08-10 22:59:00,
2013-08-10 19:14:00,82.0,78.1,29.93,NW,315,0.0,-999.0,88,-99.99,,,0.56,Acu-Link.com,2013-08-10 23:14:00,
2013-08-10 19:29:00,80.8,77.9,29.94,NNW,337,0.0,-999.0,91,-99.99,,,0.56,Acu-Link.com,2013-08-10 23:29:00,
2013-08-10 19:44:00,79.3,77.7,29.94,SE,135,0.0,-999.0,95,-99.99,,,0.56,Acu-Link.com,2013-08-10 23:44:00,
2013-08-10 19:59:00,79.0,77.1,29.94,ESE,112,0.0,-999.0,94,-99.99,,,0.56,Acu-Link.com,2013-08-10 23:59:00,
2013-08-10 20:14:00,78.3,77.1,29.94,ESE,112,0.0,-999.0,96,-99.99,,,0.56,Acu-Link.com,2013-08-11 00:14:00,
2013-08-10 20:29:00,77.0,76.4,29.94,NNW,337,0.0,-999.0,98,-99.99,,,0.56,Acu-Link.com,2013-08-11 00:29:00,
2013-08-10 20:45:00,76.5,76.2,29.94,WNW,292,0.0,-999.0,99,-99.99,,,0.56,Acu-Link.com,2013-08-11 00:45:00,
2013-08-10 21:00:00,75.7,75.4,29.94,SSW,202,0.0,-999.0,99,-99.99,,,0.56,Acu-Link.com,2013-08-11 01:00:00,
2013-08-10 21:15:00,75.2,74.9,29.94,SSW,202,0.0,-999.0,99,-99.99,,,0.56,Acu-Link.com,2013-08-11 01:15:00,
2013-08-10 21:30:00,74.8,74.5,29.95,NNW,337,0.0,-999.0,99,-99.99,,,0.56,Acu-Link.com,2013-08-11 01:30:00,
2013-08-10 21:45:00,74.5,74.2,29.95,East,90,0.0,-999.0,99,-99.99,,,0.56,Acu-Link.com,2013-08-11 01:45:00,
2013-08-10 22:00:00,73.9,73.6,29.96,SE,135,0.0,-999.0,99,-99.99,,,0.56,Acu-Link.com,2013-08-11 02:00:00,
2013-08-10 22:15:00,73.6,73.3,29.96,SE,135,0.0,-999.0,99,-99.99,,,0.56,Acu-Link.com,2013-08-11 02:15:00,
2013-08-10 22:30:00,73.6,73.3,29.96,ESE,112,0.0,-999.0,99,-99.99,,,0.56,Acu-Link.com,2013-08-11 02:30:00,
2013-08-10 22:45:00,73.4,73.1,29.96,East,90,0.0,-999.0,99,-99.99,,,0.56,Acu-Link.com,2013-08-11 02:45:00,
2013-08-10 23:01:00,73.2,72.9,29.97,South,180,0.0,-999.0,99,-99.99,,,0.56,Acu-Link.com,2013-08-11 03:01:00,
2013-08-10 23:16:00,73.2,72.9,29.97,NW,315,0.0,-999.0,99,-99.99,,,0.56,Acu-Link.com,2013-08-11 03:16:00,
2013-08-10 23:46:00,72.7,72.4,29.95,ESE,112,0.0,-999.0,99,-99.99,,,0.56,Acu-Link.com,2013-08-11 03:46:00,